createdAt,value
2022-10-06T00:00:25.753Z,1.98
2022-10-06T00:02:53.594Z,1.92
2022-10-06T00:05:23.587Z,1.40
2022-10-06T00:07:51.661Z,2.65
2022-10-06T00:10:19.668Z,3.95
2022-10-06T00:12:51.401Z,1.40
2022-10-06T00:15:24.926Z,2.67
2022-10-06T00:18:05.985Z,4.15
2022-10-06T00:20:33.874Z,2.38
2022-10-06T00:23:01.864Z,1.90
2022-10-06T00:25:29.708Z,3.08
2022-10-06T00:27:57.702Z,2.13
2022-10-06T00:30:28.560Z,2.42
2022-10-06T00:33:00.334Z,2.53
2022-10-06T00:35:32.520Z,3.72
2022-10-06T00:38:03.057Z,2.40
2022-10-06T00:40:34.480Z,3.70
2022-10-06T00:43:06.268Z,2.05
2022-10-06T00:45:39.921Z,3.80
2022-10-06T00:48:17.186Z,2.95
2022-10-06T00:50:48.277Z,3.50
2022-10-06T00:53:17.105Z,1.77
2022-10-06T00:55:47.025Z,5.53
2022-10-06T00:58:17.500Z,3.17
2022-10-06T01:03:27.230Z,2.13
2022-10-06T01:06:00.354Z,5.05
2022-10-06T01:08:28.483Z,3.42
2022-10-06T01:10:56.366Z,4.53
2022-10-06T01:13:30.121Z,2.53
2022-10-06T01:16:06.807Z,2.72
2022-10-06T01:18:36.251Z,4.82
2022-10-06T01:21:09.904Z,2.95
2022-10-06T01:23:41.614Z,5.25
2022-10-06T01:26:12.496Z,3.03
2022-10-06T01:28:40.915Z,3.65
2022-10-06T01:31:12.985Z,2.65
2022-10-06T01:33:41.744Z,2.03
2022-10-06T01:36:09.548Z,3.60
2022-10-06T01:38:42.661Z,4.07
2022-10-06T01:41:10.460Z,2.83
2022-10-06T01:43:38.235Z,6.30
2022-10-06T01:46:10.127Z,1.65
2022-10-06T01:48:46.951Z,1.65
2022-10-06T01:51:16.252Z,2.63
2022-10-06T01:53:45.555Z,4.95
2022-10-06T01:56:13.790Z,2.42
2022-10-06T01:58:45.668Z,3.85
2022-10-06T02:01:15.755Z,5.57
2022-10-06T02:03:43.640Z,7.63
2022-10-06T02:06:14.092Z,5.38
2022-10-06T02:11:13.486Z,3.05
2022-10-06T02:13:43.443Z,3.20
2022-10-06T02:16:16.053Z,3.35
2022-10-06T02:18:43.932Z,2.95
2022-10-06T02:21:18.169Z,3.40
2022-10-06T02:23:48.074Z,6.03
2022-10-06T02:26:18.977Z,4.55
2022-10-06T02:28:49.639Z,4.90
2022-10-06T02:31:20.307Z,4.25
2022-10-06T02:33:48.246Z,4.15
2022-10-06T02:36:18.666Z,3.83
2022-10-06T02:41:17.491Z,3.77
2022-10-06T02:43:47.087Z,4.82
2022-10-06T02:46:17.014Z,2.72
2022-10-06T02:48:44.848Z,4.25
2022-10-06T02:51:18.087Z,5.03
2022-10-06T02:53:49.233Z,6.50
2022-10-06T02:56:22.232Z,5.82
2022-10-06T02:58:53.319Z,3.20
2022-10-06T03:01:25.692Z,5.47
2022-10-06T03:03:54.498Z,2.50
2022-10-06T03:06:24.242Z,5.30
2022-10-06T03:08:57.318Z,7.45
2022-10-06T03:11:28.345Z,4.00
2022-10-06T03:14:00.400Z,6.43
2022-10-06T03:16:32.330Z,3.95
2022-10-06T03:19:03.107Z,5.38
2022-10-06T03:21:33.168Z,6.25
2022-10-06T03:24:01.434Z,5.15
2022-10-06T03:26:34.811Z,6.38
2022-10-06T03:29:05.140Z,6.10
2022-10-06T03:31:38.398Z,6.95
2022-10-06T03:36:35.150Z,2.50
2022-10-06T03:39:08.329Z,6.15
2022-10-06T03:41:38.748Z,5.97
2022-10-06T03:46:41.205Z,6.78
2022-10-06T03:49:09.464Z,5.95
2022-10-06T03:51:39.449Z,6.32
2022-10-06T03:54:12.579Z,4.13
2022-10-06T03:56:54.836Z,7.85
2022-10-06T03:59:26.573Z,4.78
2022-10-06T04:01:57.103Z,3.65
2022-10-06T04:04:24.904Z,4.13
2022-10-06T04:06:54.562Z,5.38
2022-10-06T04:09:24.727Z,6.97
2022-10-06T04:11:53.861Z,5.07
2022-10-06T04:14:23.541Z,4.22
2022-10-06T04:16:55.689Z,6.25
2022-10-06T04:19:23.495Z,4.57
2022-10-06T04:21:51.365Z,5.68
2022-10-06T04:24:23.261Z,5.32
2022-10-06T04:26:52.295Z,6.28
2022-10-06T04:29:26.735Z,4.38
2022-10-06T04:31:56.439Z,5.23
2022-10-06T04:34:24.486Z,5.30
2022-10-06T04:36:54.527Z,4.77
2022-10-06T04:39:24.247Z,3.80
2022-10-06T04:41:52.008Z,4.53
2022-10-06T04:44:20.362Z,3.60
2022-10-06T04:46:51.537Z,1.93
2022-10-06T04:49:20.520Z,2.63
2022-10-06T04:51:51.441Z,2.33
2022-10-06T04:54:21.816Z,0.97
2022-10-06T04:56:49.862Z,0.88
2022-10-06T04:59:19.813Z,4.47
2022-10-06T05:01:51.012Z,2.25
2022-10-06T05:04:18.904Z,1.80
2022-10-06T05:06:48.892Z,0.73
2022-10-06T05:09:18.812Z,13.18
2022-10-06T05:11:46.738Z,0.50
2022-10-06T05:14:16.672Z,1.60
2022-10-06T05:16:46.488Z,3.80
2022-10-06T05:19:15.757Z,1.75
2022-10-06T05:21:45.761Z,2.33
2022-10-06T05:24:13.746Z,1.88
2022-10-06T05:26:41.609Z,2.73
2022-10-06T05:29:11.568Z,1.43
2022-10-06T05:31:43.312Z,1.23
2022-10-06T05:34:11.154Z,1.23
2022-10-06T05:36:40.415Z,1.97
2022-10-06T05:39:10.122Z,2.97
2022-10-06T05:41:38.201Z,2.08
2022-10-06T05:44:09.123Z,2.77
2022-10-06T05:46:37.131Z,2.77
2022-10-06T05:49:07.126Z,2.30
2022-10-06T05:51:40.723Z,2.05
2022-10-06T05:54:09.993Z,2.40
2022-10-06T05:56:40.004Z,2.30
2022-10-06T05:59:10.265Z,2.08
2022-10-06T06:01:40.903Z,2.88
2022-10-06T06:04:13.948Z,4.40
2022-10-06T06:06:43.504Z,3.80
2022-10-06T06:09:19.557Z,4.47
2022-10-06T06:11:49.206Z,3.43
2022-10-06T06:14:40.606Z,4.18
2022-10-06T06:20:03.852Z,2.90
2022-10-06T06:23:02.772Z,4.63
2022-10-06T06:26:02.501Z,1.47
2022-10-06T06:28:32.259Z,7.20
2022-10-06T06:31:04.176Z,4.93
2022-10-06T06:33:32.335Z,3.20
2022-10-06T06:36:02.831Z,3.77
2022-10-06T06:41:01.794Z,2.33
2022-10-06T06:43:29.739Z,3.80
2022-10-06T06:46:03.422Z,3.70
2022-10-06T06:48:31.781Z,5.07
2022-10-06T06:50:59.810Z,4.80
2022-10-06T06:53:31.812Z,3.73
2022-10-06T06:56:01.319Z,2.83
2022-10-06T06:58:29.453Z,4.80
2022-10-06T07:01:08.210Z,5.50
2022-10-06T07:03:57.449Z,5.93
2022-10-06T07:06:31.719Z,6.40
2022-10-06T07:09:01.001Z,3.20
2022-10-06T07:11:35.795Z,5.63
2022-10-06T07:14:05.482Z,7.20
2022-10-06T07:16:55.508Z,5.13
2022-10-06T07:19:52.766Z,6.22
2022-10-06T07:22:40.158Z,4.03
2022-10-06T07:25:17.943Z,3.37
2022-10-06T07:27:53.978Z,7.18
2022-10-06T07:30:23.818Z,4.73
2022-10-06T07:32:52.834Z,5.30
2022-10-06T07:35:23.888Z,4.73
2022-10-06T07:37:54.446Z,2.73
2022-10-06T07:40:22.289Z,1.60
2022-10-06T07:42:52.394Z,6.40
2022-10-06T07:45:42.172Z,5.40
2022-10-06T07:48:14.595Z,3.25
2022-10-06T07:50:43.829Z,4.70
2022-10-06T07:53:11.897Z,4.83
2022-10-06T07:55:41.201Z,4.80
2022-10-06T07:58:14.218Z,11.40
2022-10-06T08:00:44.158Z,7.30
2022-10-06T08:03:14.453Z,3.45
2022-10-06T08:05:42.298Z,3.55
2022-10-06T08:08:10.199Z,3.10
2022-10-06T08:10:40.985Z,3.67
2022-10-06T08:13:12.512Z,6.30
2022-10-06T08:15:43.936Z,7.53
2022-10-06T08:18:27.224Z,4.07
2022-10-06T08:21:03.508Z,5.40
2022-10-06T08:23:32.727Z,5.37
2022-10-06T08:26:00.526Z,6.43
2022-10-06T08:28:34.505Z,5.07
2022-10-06T08:31:06.683Z,8.50
2022-10-06T08:33:40.458Z,7.43
2022-10-06T08:36:10.222Z,6.10
2022-10-06T08:38:40.254Z,6.00
2022-10-06T08:41:19.799Z,7.47
2022-10-06T08:43:56.300Z,6.80
2022-10-06T08:46:30.981Z,4.80
2022-10-06T08:49:01.858Z,6.10
2022-10-06T08:51:50.809Z,6.70
2022-10-06T08:54:29.962Z,3.87
2022-10-06T08:57:03.817Z,4.40
2022-10-06T08:59:35.178Z,5.90
2022-10-06T09:02:08.570Z,3.83
2022-10-06T09:04:38.510Z,5.37
2022-10-06T09:07:15.984Z,5.80
2022-10-06T09:09:58.221Z,5.80
2022-10-06T09:12:34.113Z,5.70
2022-10-06T09:15:18.040Z,5.43
2022-10-06T09:17:56.314Z,4.43
2022-10-06T09:20:30.269Z,6.37
2022-10-06T09:22:58.810Z,7.17
2022-10-06T09:25:30.956Z,3.63
2022-10-06T09:28:01.013Z,3.90
2022-10-06T09:30:29.027Z,8.65
2022-10-06T09:33:00.459Z,4.80
2022-10-06T09:35:31.332Z,5.97
2022-10-06T09:38:07.849Z,6.15
2022-10-06T09:40:42.112Z,6.00
2022-10-06T09:43:21.451Z,6.53
2022-10-06T09:45:53.567Z,5.60
2022-10-06T09:48:25.244Z,4.72
2022-10-06T09:51:13.597Z,5.85
2022-10-06T09:53:41.916Z,6.57
2022-10-06T09:56:17.562Z,6.55
2022-10-06T09:58:56.356Z,6.07
2022-10-06T10:01:26.625Z,9.52
2022-10-06T10:04:20.403Z,8.50
2022-10-06T10:06:52.841Z,10.43
2022-10-06T10:09:27.110Z,8.10
2022-10-06T10:12:27.658Z,6.38
2022-10-06T10:17:37.815Z,6.20
2022-10-06T10:22:49.138Z,5.03
2022-10-06T10:25:29.814Z,4.88
2022-10-06T10:28:09.918Z,4.13
2022-10-06T10:30:50.030Z,4.25
2022-10-06T10:33:29.800Z,9.10
2022-10-06T10:36:01.745Z,4.90
2022-10-06T10:38:34.775Z,4.95
2022-10-06T10:41:09.788Z,6.10
2022-10-06T10:43:49.834Z,5.60
2022-10-06T10:46:24.735Z,4.47
2022-10-06T10:49:00.939Z,9.50
2022-10-06T10:51:33.670Z,4.53
2022-10-06T10:54:09.741Z,4.20
2022-10-06T10:56:37.664Z,3.03
2022-10-06T10:59:15.024Z,4.87
2022-10-06T11:01:49.091Z,5.82
2022-10-06T11:04:22.309Z,6.07
2022-10-06T11:07:17.907Z,3.37
2022-10-06T11:09:54.207Z,5.20
2022-10-06T11:12:37.323Z,4.50
2022-10-06T11:15:18.193Z,5.03
2022-10-06T11:17:50.355Z,3.63
2022-10-06T11:20:39.383Z,2.63
2022-10-06T11:23:40.786Z,3.72
2022-10-06T11:26:18.024Z,1.73
2022-10-06T11:28:51.172Z,2.53
2022-10-06T11:31:26.795Z,6.30
2022-10-06T11:33:56.335Z,4.00
2022-10-06T11:36:35.738Z,3.03
2022-10-06T11:39:18.533Z,5.03
2022-10-06T11:41:50.561Z,2.30
2022-10-06T11:44:23.645Z,3.85
2022-10-06T11:46:58.049Z,3.22
2022-10-06T11:49:52.259Z,4.18
2022-10-06T11:52:54.171Z,4.30
2022-10-06T11:55:28.472Z,4.32
2022-10-06T12:01:09.925Z,5.75
2022-10-06T12:04:06.310Z,1.90
2022-10-06T12:07:09.502Z,4.43
2022-10-06T12:10:15.109Z,2.33
2022-10-06T12:13:07.968Z,4.78
2022-10-06T12:19:19.542Z,4.72
2022-10-06T12:22:01.934Z,11.25
2022-10-06T12:24:39.903Z,8.60
2022-10-06T12:27:30.036Z,3.88
2022-10-06T12:30:05.611Z,5.95
2022-10-06T12:32:50.036Z,6.85
2022-10-06T12:35:30.357Z,6.28
2022-10-06T12:38:03.704Z,7.90
2022-10-06T12:40:47.733Z,5.13
2022-10-06T12:43:34.673Z,12.40
2022-10-06T12:46:08.156Z,6.55
2022-10-06T12:48:41.896Z,7.93
2022-10-06T12:51:23.836Z,5.93
2022-10-06T12:54:00.038Z,10.32
2022-10-06T12:56:31.855Z,7.65
2022-10-06T12:59:22.227Z,10.10
2022-10-06T13:01:53.623Z,9.85
2022-10-06T13:04:43.020Z,8.30
2022-10-06T13:07:16.845Z,14.18
2022-10-06T13:09:47.821Z,6.57
2022-10-06T13:12:28.453Z,7.72
2022-10-06T13:15:17.558Z,11.70
2022-10-06T13:17:50.524Z,5.72
2022-10-06T13:20:27.040Z,9.93
2022-10-06T13:23:00.083Z,7.53
2022-10-06T13:25:36.837Z,13.43
2022-10-06T13:28:04.814Z,9.10
2022-10-06T13:30:38.608Z,8.18
2022-10-06T13:33:09.834Z,8.75
2022-10-06T13:35:38.537Z,7.28
2022-10-06T13:38:06.550Z,8.32
2022-10-06T13:40:45.459Z,9.60
2022-10-06T13:43:20.215Z,13.18
2022-10-06T13:45:49.610Z,7.40
2022-10-06T13:48:22.029Z,7.10
2022-10-06T13:50:52.367Z,8.68
2022-10-06T13:53:28.286Z,7.22
2022-10-06T13:55:56.506Z,11.00
2022-10-06T13:58:31.214Z,6.45
2022-10-06T14:01:02.306Z,9.13
2022-10-06T14:06:10.314Z,7.93
2022-10-06T14:08:38.620Z,12.05
2022-10-06T14:11:08.974Z,9.20
2022-10-06T14:13:44.551Z,8.98
2022-10-06T14:16:20.902Z,7.55
2022-10-06T14:18:57.114Z,10.57
2022-10-06T14:21:34.853Z,9.95
2022-10-06T14:24:07.542Z,5.15
2022-10-06T14:26:37.803Z,5.78
2022-10-06T14:29:05.755Z,6.20
2022-10-06T14:31:34.094Z,11.02
2022-10-06T14:34:05.162Z,7.05
2022-10-06T14:36:38.187Z,10.95
2022-10-06T14:39:07.512Z,9.60
2022-10-06T14:41:37.734Z,12.85
2022-10-06T14:44:10.469Z,8.25
2022-10-06T14:46:39.432Z,6.15
2022-10-06T14:49:09.634Z,11.43
2022-10-06T14:51:42.365Z,8.48
2022-10-06T14:54:11.260Z,5.82
2022-10-06T14:56:40.297Z,10.90
2022-10-06T14:59:12.763Z,7.32
2022-10-06T15:01:41.034Z,8.00
2022-10-06T15:04:11.700Z,5.00
2022-10-06T15:06:57.736Z,10.53
2022-10-06T15:09:25.862Z,7.80
2022-10-06T15:11:54.069Z,8.83
2022-10-06T15:14:24.417Z,7.60
2022-10-06T15:16:54.693Z,6.20
2022-10-06T15:19:23.807Z,4.10
2022-10-06T15:21:51.763Z,10.37
2022-10-06T15:24:20.689Z,5.47
2022-10-06T15:27:06.046Z,5.37
2022-10-06T15:29:36.244Z,9.03
2022-10-06T15:32:06.625Z,6.13
2022-10-06T15:34:40.310Z,5.47
2022-10-06T15:37:08.058Z,6.70
2022-10-06T15:39:37.787Z,5.53
2022-10-06T15:42:06.652Z,6.68
2022-10-06T15:44:35.334Z,10.07
2022-10-06T15:47:04.948Z,6.67
2022-10-06T15:49:39.886Z,8.05
2022-10-06T15:52:12.193Z,7.43
2022-10-06T15:54:43.826Z,3.90
2022-10-06T15:57:16.572Z,5.97
2022-10-06T15:59:49.896Z,11.80
2022-10-06T16:02:19.726Z,11.47
2022-10-06T16:05:16.111Z,10.95
2022-10-06T16:07:47.074Z,9.83
2022-10-06T16:10:15.003Z,12.40
2022-10-06T16:12:44.603Z,8.20
2022-10-06T16:15:14.622Z,11.80
2022-10-06T16:17:42.367Z,12.00
2022-10-06T16:20:13.420Z,10.57
2022-10-06T16:22:43.457Z,9.07
2022-10-06T16:25:17.346Z,12.30
2022-10-06T16:27:47.284Z,10.40
2022-10-06T16:30:15.236Z,11.15
2022-10-06T16:32:44.956Z,13.37
2022-10-06T16:35:18.097Z,10.73
2022-10-06T16:37:51.702Z,16.40
2022-10-06T16:40:23.126Z,11.47
2022-10-06T16:42:52.115Z,11.80
2022-10-06T16:45:19.969Z,11.10
2022-10-06T16:47:47.857Z,10.57
2022-10-06T16:50:15.811Z,12.20
2022-10-06T16:52:45.453Z,10.07
2022-10-06T16:55:13.517Z,12.30
2022-10-06T16:57:42.664Z,14.17
2022-10-06T17:00:12.298Z,9.23
2022-10-06T17:02:41.156Z,11.55
2022-10-06T17:05:09.382Z,10.27
2022-10-06T17:07:37.238Z,14.77
2022-10-06T17:10:19.992Z,13.23
2022-10-06T17:12:50.285Z,14.20
2022-10-06T17:15:20.275Z,11.33
2022-10-06T17:17:48.038Z,10.27
2022-10-06T17:20:16.646Z,15.23
2022-10-06T17:22:44.625Z,11.80
2022-10-06T17:25:14.132Z,9.37
2022-10-06T17:27:42.259Z,14.90
2022-10-06T17:30:12.759Z,11.93
2022-10-06T17:35:09.442Z,13.60
2022-10-06T17:37:40.408Z,9.37
2022-10-06T17:40:09.070Z,15.80
2022-10-06T17:42:39.428Z,13.70
2022-10-06T17:47:36.601Z,14.23
2022-10-06T17:50:06.582Z,18.17
2022-10-06T17:52:35.553Z,12.73
2022-10-06T17:55:03.549Z,13.63
2022-10-06T17:57:33.323Z,12.77
2022-10-06T18:00:01.651Z,14.40
2022-10-06T18:02:29.654Z,13.00
2022-10-06T18:05:01.566Z,13.40
2022-10-06T18:07:31.564Z,10.70
2022-10-06T18:10:20.095Z,15.05
2022-10-06T18:12:50.762Z,12.97
2022-10-06T18:15:18.589Z,10.03
2022-10-06T18:17:51.351Z,11.13
2022-10-06T18:20:21.551Z,12.47
2022-10-06T18:22:49.919Z,11.88
2022-10-06T18:25:23.245Z,10.00
2022-10-06T18:27:56.929Z,10.83
2022-10-06T18:30:29.608Z,11.52
2022-10-06T18:35:29.892Z,12.10
2022-10-06T18:38:47.042Z,13.03
2022-10-06T18:41:18.090Z,12.80
2022-10-06T18:43:46.608Z,11.93
2022-10-06T18:46:35.885Z,11.90
2022-10-06T18:49:10.345Z,10.63
2022-10-06T18:51:41.285Z,15.37
2022-10-06T18:54:13.436Z,14.37
2022-10-06T18:56:53.851Z,9.47
2022-10-06T18:59:26.317Z,10.73
2022-10-06T19:01:56.943Z,10.07
2022-10-06T19:04:25.947Z,8.33
2022-10-06T19:06:56.537Z,13.40
2022-10-06T19:09:29.333Z,12.17
2022-10-06T19:11:59.003Z,11.13
2022-10-06T19:14:33.491Z,14.27
2022-10-06T19:17:06.782Z,12.83
2022-10-06T19:19:35.493Z,13.67
2022-10-06T19:22:06.630Z,13.73
2022-10-06T19:24:36.745Z,12.10
2022-10-06T19:27:10.088Z,11.43
2022-10-06T19:29:39.188Z,13.90
2022-10-06T19:32:08.357Z,9.63
2022-10-06T19:34:38.647Z,12.53
2022-10-06T19:37:13.412Z,16.02
2022-10-06T19:39:45.011Z,16.23
2022-10-06T19:42:38.188Z,12.93
2022-10-06T19:45:08.294Z,18.77
2022-10-06T19:47:39.937Z,13.45
2022-10-06T19:50:12.422Z,14.03
2022-10-06T19:52:42.278Z,18.60
2022-10-06T19:55:10.072Z,14.27
2022-10-06T19:57:40.515Z,11.43
2022-10-06T20:00:10.278Z,15.17
2022-10-06T20:02:42.183Z,21.60
2022-10-06T20:05:16.776Z,10.40
2022-10-06T20:07:47.564Z,16.73
2022-10-06T20:10:16.351Z,20.50
2022-10-06T20:12:48.492Z,14.87
2022-10-06T20:15:16.300Z,15.37
2022-10-06T20:17:45.519Z,16.40
2022-10-06T20:20:17.802Z,17.63
2022-10-06T20:22:47.409Z,14.17
2022-10-06T20:25:15.288Z,17.95
2022-10-06T20:27:45.972Z,18.10
2022-10-06T20:30:14.138Z,19.00
2022-10-06T20:32:42.222Z,14.37
2022-10-06T20:35:14.263Z,16.93
2022-10-06T20:37:42.479Z,21.07
2022-10-06T20:40:31.402Z,17.97
2022-10-06T20:43:00.848Z,19.50
2022-10-06T20:45:29.771Z,19.73
2022-10-06T20:48:00.117Z,21.50
2022-10-06T20:50:30.935Z,24.27
2022-10-06T20:52:59.100Z,26.70
2022-10-06T20:55:28.332Z,23.87
2022-10-06T20:57:58.630Z,20.00
2022-10-06T21:00:26.528Z,20.23
2022-10-06T21:02:54.626Z,15.90
2022-10-06T21:05:27.289Z,17.77
2022-10-06T21:07:55.133Z,24.10
2022-10-06T21:10:23.060Z,23.20
2022-10-06T21:12:57.303Z,17.97
2022-10-06T21:15:25.213Z,23.10
2022-10-06T21:17:53.046Z,23.33
2022-10-06T21:20:23.815Z,24.43
2022-10-06T21:22:52.753Z,22.10
2022-10-06T21:25:20.583Z,18.83
2022-10-06T21:27:54.772Z,17.97
2022-10-06T21:30:22.589Z,23.70
2022-10-06T21:32:50.454Z,17.70
2022-10-06T21:35:22.611Z,28.50
2022-10-06T21:37:50.437Z,22.57
2022-10-06T21:40:18.239Z,25.70
2022-10-06T21:42:50.348Z,19.50
2022-10-06T21:45:24.174Z,25.43
2022-10-06T21:47:54.303Z,22.43
2022-10-06T21:50:22.203Z,21.80
2022-10-06T21:52:50.078Z,19.63
2022-10-06T21:55:22.203Z,21.00
2022-10-06T21:57:49.964Z,22.80
2022-10-06T22:00:19.207Z,25.93
2022-10-06T22:02:49.178Z,18.87
2022-10-06T22:05:17.144Z,19.27
2022-10-06T22:07:45.408Z,17.20
2022-10-06T22:10:18.064Z,22.27
2022-10-06T22:12:45.944Z,22.03
2022-10-06T22:15:16.099Z,20.27
2022-10-06T22:17:47.368Z,22.95
2022-10-06T22:20:15.261Z,26.43
2022-10-06T22:22:45.333Z,23.50
2022-10-06T22:25:15.143Z,18.00
2022-10-06T22:27:43.158Z,24.08
2022-10-06T22:30:18.143Z,22.60
2022-10-06T22:32:47.325Z,24.57
2022-10-06T22:35:15.210Z,24.43
2022-10-06T22:37:47.428Z,22.57
2022-10-06T22:40:15.414Z,19.93
2022-10-06T22:42:43.188Z,20.67
2022-10-06T22:45:15.452Z,22.57
2022-10-06T22:47:43.585Z,19.00
2022-10-06T22:50:12.904Z,30.00
2022-10-06T22:52:45.034Z,19.13
2022-10-06T22:55:12.860Z,25.07
2022-10-06T22:57:40.683Z,17.87
2022-10-06T23:00:13.841Z,19.73
2022-10-06T23:02:43.874Z,25.77
2022-10-06T23:05:13.106Z,24.23
2022-10-06T23:07:43.235Z,28.43
2022-10-06T23:10:13.703Z,28.65
2022-10-06T23:12:41.524Z,24.98
2022-10-06T23:15:13.541Z,21.87
2022-10-06T23:17:46.549Z,18.40
2022-10-06T23:20:18.370Z,21.37
2022-10-06T23:22:46.206Z,24.63
2022-10-06T23:25:16.355Z,21.93
2022-10-06T23:27:46.590Z,24.60
2022-10-06T23:32:49.259Z,23.17
2022-10-06T23:35:18.533Z,22.63
2022-10-06T23:37:46.964Z,25.33
2022-10-06T23:40:19.248Z,23.00
2022-10-06T23:42:47.142Z,24.73
2022-10-06T23:45:15.121Z,22.60
2022-10-06T23:47:47.439Z,28.63
2022-10-06T23:50:15.419Z,25.53
2022-10-06T23:52:44.747Z,26.97
2022-10-06T23:55:16.913Z,21.00
2022-10-06T23:57:45.001Z,27.80
